Latest Weather Observations for Norah Head

IDN60801

Issued at 8:02 am EST Friday 31 July 2015 (issued every 30 minutes, with the page automatically refreshed every 10 minutes)

About weather observations | Map of weather stations | Latest weather observations for NSW | Other Formats
Station Details ID: 061366 Name: NORAH HEAD AWS Lat: -33.28 Lon: 151.58 Height: 18.8 m
Data from the previous 72 hours. | See also: Recent months at Norah Head
Date/Time
EST
Temp
°C
App
Temp
°C
Dew
Point
Rel
Hum
%
Delta-T
°C
Wind Press
QNH
hPa
Press
MSL
hPa
Rain
since 9 am
mm
Dir
 
Spd
km/h
Gust
km/h
Spd
kts
Gust
kts
31/08:00am 13.7 11.6 6.8 63 3.3 WNW 7 13 4 7 1021.1 1021.1 0.0
31/07:30am 13.6 11.6 6.2 61 3.5 W 6 9 3 5 1021.1 1021.1 0.0
31/07:00am 13.4 12.3 7.0 65 3.1 W 2 6 1 3 1020.4 1020.4 0.0
31/06:30am 13.4 12.2 6.5 63 3.3 NNW 2 4 1 2 1020.1 1020.1 0.0
31/06:00am 12.9 11.7 6.3 64 3.1 WNW 2 6 1 3 1019.7 1019.7 0.0
31/05:30am 13.1 11.0 6.5 64 3.2 W 7 11 4 6 1019.4 1019.4 0.0
31/05:00am 13.1 11.1 6.2 63 3.3 SW 6 9 3 5 1019.3 1019.3 0.0
31/04:30am 13.4 11.7 6.0 61 3.5 WNW 4 7 2 4 1019.0 1019.0 0.0
31/04:00am 13.0 10.9 6.6 65 3.1 WNW 7 11 4 6 1018.9 1018.9 0.0
31/03:30am 13.4 11.8 6.3 62 3.4 WNW 4 9 2 5 1019.0 1019.0 0.0
31/03:00am 13.9 11.7 6.0 59 3.8 W 7 13 4 7 1019.1 1019.1 0.0
31/02:30am 13.9 11.8 6.0 59 3.8 WNW 6 15 3 8 1019.2 1019.2 0.0
31/02:00am 14.0 12.0 6.1 59 3.8 WNW 6 11 3 6 1019.4 1019.4 0.0
31/01:30am 14.2 11.5 5.8 57 4.0 WNW 9 17 5 9 1019.6 1019.6 0.0
31/01:00am 14.5 11.9 6.3 58 3.9 WNW 9 22 5 12 1019.1 1019.1 0.0
31/12:30am 14.0 12.1 6.6 61 3.6 WNW 6 9 3 5 1019.4 1019.4 0.0
31/12:00am 14.1 11.8 7.4 64 3.3 NNW 9 17 5 9 1019.2 1019.2 0.0
 
Date/Time
EST
Temp
°C
App
Temp
°C
Dew
Point
Rel
Hum
%
Delta-T
°C
Wind Press
QNH
hPa
Press
MSL
hPa
Rain
since 9 am
mm
Dir
 
Spd
km/h
Gust
km/h
Spd
kts
Gust
kts
30/11:30pm 13.7 11.8 7.7 67 3.0 NW 7 13 4 7 1019.5 1019.5 0.0
30/11:00pm 13.2 11.9 7.6 69 2.7 NW 4 9 2 5 1019.9 1019.9 0.0
30/10:30pm 13.5 11.8 7.5 67 2.9 NW 6 9 3 5 1020.1 1020.1 0.0
30/10:00pm 13.9 12.2 7.7 66 3.0 NW 6 7 3 4 1020.2 1020.2 0.0
30/09:30pm 14.6 10.9 8.1 65 3.2 NNW 17 24 9 13 1019.9 1019.9 0.0
30/09:00pm 15.7 11.2 8.4 62 3.7 N 22 24 12 13 1020.0 1020.0 0.0
30/08:30pm 15.7 11.1 8.2 61 3.8 N 22 28 12 15 1020.2 1020.2 0.0
30/08:00pm 16.1 11.8 9.3 64 3.5 N 22 24 12 13 1020.3 1020.3 0.0
30/07:30pm 15.5 11.4 8.0 61 3.8 NNW 19 22 10 12 1020.4 1020.4 0.0
30/07:00pm 15.7 12.1 8.2 61 3.8 NNW 17 22 9 12 1020.3 1020.3 0.0
30/06:30pm 16.1 12.2 9.3 64 3.5 N 20 24 11 13 1019.9 1019.9 0.0
30/06:00pm 16.1 11.9 8.3 60 3.9 N 20 26 11 14 1019.7 1019.7 0.0
30/05:30pm 16.0 12.5 7.2 56 4.4 NNW 15 20 8 11 1019.9 1019.9 0.0
30/05:00pm 16.3 13.3 5.9 50 5.0 NW 11 17 6 9 1019.9 1019.9 0.0
30/04:30pm 16.9 12.8 6.1 49 5.3 NW 17 28 9 15 1019.9 1019.9 0.0
30/04:00pm 17.4 12.8 5.4 45 5.8 NNW 19 30 10 16 1020.3 1020.3 0.0
30/03:30pm 18.3 13.7 5.5 43 6.2 NNW 19 30 10 16 1020.8 1020.8 0.0
30/03:00pm 19.1 14.7 6.6 44 6.2 NNW 19 32 10 17 1020.9 1020.9 0.0
30/02:30pm 19.2 15.4 6.0 42 6.5 NW 15 28 8 15 1021.2 1021.2 0.0
30/02:00pm 19.0 15.2 5.8 42 6.5 NW 15 24 8 13 1021.4 1021.4 0.0
30/01:30pm 19.5 15.3 5.9 41 6.7 NW 17 28 9 15 1021.7 1021.7 0.0
30/01:00pm 19.5 15.3 5.6 40 6.8 NW 17 28 9 15 1022.1 1022.1 0.0
30/12:30pm 19.2 14.6 5.6 41 6.7 NW 19 33 10 18 1022.5 1022.5 0.0
30/12:00pm 18.2 13.7 8.5 53 5.0 N 22 26 12 14 1023.4 1023.4 0.0
30/11:30am 17.6 12.4 8.7 56 4.6 N 26 30 14 16 1023.9 1023.9 0.0
30/11:00am 17.3 11.9 7.9 54 4.7 N 26 30 14 16 1025.0 1025.0 0.0
30/10:30am 16.9 12.7 8.1 56 4.5 N 20 24 11 13 1025.7 1025.7 0.0
30/10:00am 15.9 12.7 10.0 68 3.1 NNW 17 20 9 11 1026.2 1026.2 0.0
30/09:30am 14.7 12.4 10.3 75 2.3 NNW 13 17 7 9 1026.6 1026.6 0.0
30/09:00am 13.4 11.4 10.2 81 1.6 NNW 11 15 6 8 1026.8 1026.8 0.0
30/08:30am 12.1 10.4 10.0 87 1.1 NW 9 13 5 7 1027.1 1027.1 0.0
30/08:00am 10.9 9.0 9.0 88 0.9 NW 9 15 5 8 1026.9 1026.9 0.0
30/07:30am 10.5 9.0 9.1 91 0.7 NW 7 11 4 6 1026.7 1026.7 0.0
30/07:00am 9.8 8.1 8.4 91 0.7 NW 7 9 4 5 1026.6 1026.6 0.0
30/06:30am 9.5 7.9 7.8 89 0.8 NW 6 7 3 4 1026.6 1026.6 0.0
30/06:00am 10.3 8.6 8.2 87 1.0 WNW 7 9 4 5 1026.5 1026.5 0.0
30/05:30am 10.8 8.8 8.7 87 1.0 NW 9 11 5 6 1026.3 1026.3 0.0
30/05:00am 10.9 8.5 8.8 87 1.0 NW 11 13 6 7 1026.4 1026.4 0.0
30/04:30am 10.7 8.9 9.3 91 0.7 NW 9 13 5 7 1026.6 1026.6 0.0
30/04:00am 10.6 8.0 9.5 93 0.5 NW 13 17 7 9 1026.6 1026.6 0.0
30/03:30am 10.2 7.5 9.0 92 0.6 NW 13 15 7 8 1026.9 1026.9 0.0
30/03:00am 10.4 8.4 8.5 88 0.9 NW 9 11 5 6 1027.1 1027.1 0.0
30/02:30am 11.3 9.5 9.4 88 1.0 NW 9 13 5 7 1027.5 1027.5 0.0
30/02:00am 11.2 9.2 8.8 85 1.2 NW 9 11 5 6 1027.9 1027.9 0.0
30/01:30am 11.7 9.0 8.9 83 1.4 WNW 13 19 7 10 1028.3 1028.3 0.0
30/01:00am 11.3 9.4 9.0 86 1.1 WNW 9 17 5 9 1028.4 1028.4 0.0
30/12:30am 10.9 9.4 9.2 89 0.8 NW 7 11 4 6 1028.6 1028.6 0.0
30/12:00am 11.6 9.7 9.0 84 1.3 NW 9 13 5 7 1028.9 1028.9 0.0
 
Date/Time
EST
Temp
°C
App
Temp
°C
Dew
Point
Rel
Hum
%
Delta-T
°C
Wind Press
QNH
hPa
Press
MSL
hPa
Rain
since 9 am
mm
Dir
 
Spd
km/h
Gust
km/h
Spd
kts
Gust
kts
29/11:30pm 12.2 9.9 8.9 80 1.7 NW 11 13 6 7 1029.7 1029.7 0.0
29/11:00pm 12.2 10.0 9.2 82 1.5 WNW 11 15 6 8 1030.3 1030.3 0.0
29/10:30pm 12.0 9.7 9.0 82 1.5 WNW 11 15 6 8 1030.1 1030.1 0.0
29/10:00pm 11.7 9.5 9.3 85 1.2 WNW 11 13 6 7 1030.3 1030.3 0.0
29/09:30pm 11.2 9.2 8.8 85 1.2 WNW 9 11 5 6 1030.3 1030.3 0.0
29/09:00pm 11.9 10.6 9.8 87 1.1 NW 7 9 4 5 1030.3 1030.3 0.0
29/08:30pm 12.3 11.0 9.3 82 1.5 NW 6 7 3 4 1030.6 1030.6 0.0
29/08:00pm 12.6 11.2 8.9 78 1.8 NW 6 6 3 3 1030.8 1030.8 0.0
29/07:30pm 13.8 12.8 10.2 79 1.9 NNW 6 9 3 5 1030.8 1030.8 0.0
29/07:00pm 13.8 13.2 8.8 72 2.5 ESE 2 4 1 2 1030.8 1030.8 0.0
29/06:30pm 13.9 13.3 8.9 72 2.5 SE 2 6 1 3 1030.6 1030.6 0.0
29/06:00pm 14.0 12.7 9.2 73 2.4 SE 6 9 3 5 1030.2 1030.2 0.0
29/05:30pm 13.9 12.4 9.3 74 2.3 SE 7 11 4 6 1029.9 1029.9 0.0
29/05:00pm 14.2 12.8 9.4 73 2.4 SE 7 11 4 6 1029.8 1029.8 0.0
29/04:30pm 14.4 12.3 9.6 73 2.5 SSE 11 15 6 8 1029.7 1029.7 0.0
29/04:00pm 14.7 12.1 9.3 70 2.7 SSE 13 17 7 9 1029.9 1029.9 0.0
29/03:30pm 15.1 12.5 9.5 69 2.9 S 13 17 7 9 1030.1 1030.1 0.0
29/03:00pm 15.8 13.0 9.9 68 3.1 S 15 19 8 10 1030.4 1030.4 0.0
29/02:30pm 16.1 13.2 9.8 66 3.3 S 15 20 8 11 1030.6 1030.6 0.0
29/02:00pm 16.2 13.3 9.8 66 3.3 S 15 19 8 10 1030.8 1030.8 0.0
29/01:30pm 16.2 14.5 11.2 72 2.7 SSW 11 17 6 9 1031.2 1031.2 0.0
29/01:00pm 15.4 12.8 9.3 67 3.1 SSW 13 17 7 9 1031.8 1031.8 0.0
29/12:30pm 15.3 11.9 9.0 66 3.2 SSW 17 20 9 11 1032.2 1032.2 0.0
29/12:00pm 15.8 13.5 10.3 70 2.9 SSW 13 22 7 12 1032.8 1032.8 0.0
29/11:30am 15.2 12.7 9.8 70 2.8 SSW 13 17 7 9 1033.3 1033.3 0.0
29/11:00am 14.9 12.9 8.6 66 3.2 SSW 9 15 5 8 1033.8 1033.8 0.0
29/10:30am 14.3 12.5 8.0 66 3.1 WSW 7 13 4 7 1034.1 1034.1 0.0
29/10:00am 13.6 11.5 8.2 70 2.7 W 9 15 5 8 1034.4 1034.4 0.0
29/09:30am 12.4 10.1 7.3 71 2.5 W 9 15 5 8 1034.5 1034.5 0.0
29/09:00am 11.4 8.6 6.9 74 2.1 W 11 19 6 10 1034.4 1034.4 0.0
29/08:30am 10.3 7.4 6.3 76 1.9 W 11 19 6 10 1034.3 1034.3 0.0
29/08:00am 9.5 6.1 6.0 79 1.6 W 13 20 7 11 1034.1 1034.1 0.0
29/07:30am 8.8 4.6 5.7 81 1.4 W 17 22 9 12 1033.9 1033.9 0.0
29/07:00am 8.3 4.5 5.6 83 1.2 W 15 20 8 11 1033.6 1033.6 0.0
29/06:30am 8.5 3.9 5.6 82 1.3 W 19 24 10 13 1033.2 1033.2 0.0
29/06:00am 8.1 4.7 6.1 87 0.9 W 13 19 7 10 1032.9 1032.9 0.0
29/05:30am 8.3 4.9 6.1 86 1.0 W 13 19 7 10 1032.8 1032.8 0.0
29/05:00am 8.5 5.1 6.1 85 1.1 W 13 19 7 10 1032.6 1032.6 0.0
29/04:30am 8.6 4.9 6.1 84 1.1 W 15 20 8 11 1032.4 1032.4 0.0
29/04:00am 8.7 4.9 5.8 82 1.3 W 15 20 8 11 1032.4 1032.4 0.0
29/03:30am 8.7 4.9 5.8 82 1.3 W 15 22 8 12 1032.2 1032.2 0.0
29/03:00am 8.7 4.9 6.0 83 1.2 W 15 20 8 11 1032.4 1032.4 0.0
29/02:30am 8.7 5.0 6.5 86 1.0 W 15 19 8 10 1032.5 1032.5 0.0
29/02:00am 8.7 5.4 6.3 85 1.1 W 13 20 7 11 1032.4 1032.4 0.0
29/01:30am 8.8 4.8 6.6 86 1.0 W 17 20 9 11 1032.4 1032.4 0.0
29/01:00am 9.0 5.0 6.6 85 1.1 W 17 22 9 12 1032.3 1032.3 0.0
29/12:30am 9.3 5.3 6.7 84 1.2 W 17 20 9 11 1032.2 1032.2 0.0
29/12:00am 10.4 6.8 6.9 79 1.6 WSW 15 19 8 10 1032.3 1032.3 0.0
 
Date/Time
EST
Temp
°C
App
Temp
°C
Dew
Point
Rel
Hum
%
Delta-T
°C
Wind Press
QNH
hPa
Press
MSL
hPa
Rain
since 9 am
mm
Dir
 
Spd
km/h
Gust
km/h
Spd
kts
Gust
kts
28/11:30pm 10.5 6.5 6.8 78 1.7 W 17 20 9 11 1032.4 1032.4 0.0
28/11:00pm 10.8 7.2 6.9 77 1.8 WSW 15 17 8 9 1032.6 1032.6 0.0
28/10:30pm 10.6 7.4 6.7 77 1.8 WSW 13 15 7 8 1032.6 1032.6 0.0
28/10:00pm 10.5 7.3 6.8 78 1.7 W 13 17 7 9 1032.7 1032.7 0.0
28/09:30pm 10.7 7.5 7.0 78 1.8 WSW 13 17 7 9 1032.7 1032.7 0.0
28/09:00pm 10.8 8.0 6.9 77 1.8 WSW 11 15 6 8 1032.7 1032.7 0.0
28/08:30pm 11.5 8.6 6.6 72 2.3 WSW 11 13 6 7 1032.7 1032.7 0.0
28/08:00pm 12.7 9.9 7.0 68 2.7 WSW 11 19 6 10 1032.8 1032.8 0.0
28/07:30pm 12.9 10.4 6.5 65 3.1 SW 9 15 5 8 1032.5 1032.5 0.0
28/07:00pm 13.0 10.8 6.4 64 3.1 SW 7 19 4 10 1032.3 1032.3 0.0
28/06:30pm 14.4 10.9 7.0 61 3.6 SSW 15 20 8 11 1032.0 1032.0 0.0
28/06:00pm 14.5 10.4 8.0 65 3.2 S 19 24 10 13 1031.5 1031.5 0.0
28/05:30pm 14.5 11.1 7.8 64 3.3 S 15 24 8 13 1031.2 1031.2 0.0
28/05:00pm 14.6 10.4 7.4 62 3.5 S 19 26 10 14 1031.0 1031.0 0.0
28/04:30pm 14.5 10.9 6.8 60 3.7 S 15 24 8 13 1030.9 1030.9 0.0
28/04:00pm 14.5 9.9 6.3 58 3.9 S 20 28 11 15 1030.7 1030.7 0.0
28/03:30pm 14.6 10.4 5.9 56 4.2 S 17 24 9 13 1030.8 1030.8 0.0
28/03:00pm 14.8 9.9 5.3 53 4.4 S 20 30 11 16 1030.7 1030.7 0.0
28/02:30pm 15.1 10.2 5.0 51 4.8 S 20 28 11 15 1030.6 1030.6 0.0
28/02:00pm 15.2 10.8 4.9 50 4.8 S 17 22 9 12 1030.6 1030.6 0.0
28/01:30pm 15.4 12.1 4.5 48 5.1 S 11 17 6 9 1030.7 1030.7 0.0
28/01:00pm 15.4 11.8 4.8 49 4.9 SSW 13 20 7 11 1030.9 1030.9 0.0
28/12:30pm 14.8 11.3 3.3 46 5.2 SSW 11 20 6 11 1031.4 1031.4 0.0
28/12:00pm 14.9 11.7 2.8 44 5.4 SW 9 20 5 11 1031.8 1031.8 0.0
28/11:30am 14.7 11.6 3.8 48 5.0 SW 9 17 5 9 1032.2 1032.2 0.0
28/11:00am 13.9 10.2 2.2 45 5.1 WSW 11 20 6 11 1032.6 1032.6 0.0
28/10:30am 13.4 9.3 2.3 47 4.9 WSW 13 20 7 11 1032.7 1032.7 0.0
28/10:00am 12.6 9.1 3.3 53 4.1 W 11 20 6 11 1032.9 1032.9 0.0
28/09:30am 11.3 7.7 2.9 56 3.7 W 11 17 6 9 1032.7 1032.7 0.0
28/09:00am 10.3 7.1 2.9 60 3.2 W 9 15 5 8 1032.6 1032.6 0.0
28/08:30am 9.4 6.1 2.5 62 2.9 W 9 17 5 9 1032.4 1032.4 0.0

Other Formats:

Comma delimited format used in spreadsheet applications
http://www.bom.gov.au/fwo/IDN60801/IDN60801.95770.axf

JavaScript Object Notation format (JSON) in row-major order
http://www.bom.gov.au/fwo/IDN60801/IDN60801.95770.json